sensor_id;sensor_type;location;lat;lon;timestamp;pressure;altitude;pressure_sealevel;temperature;humidity
28701;BME280;15877;52.344;16.790;2023-03-19T00:00:35;100570.04;;;9.64;57.15
28701;BME280;15877;52.344;16.790;2023-03-19T00:03:27;100574.06;;;9.63;57.42
28701;BME280;15877;52.344;16.790;2023-03-19T00:06:01;100573.15;;;9.61;57.28
28701;BME280;15877;52.344;16.790;2023-03-19T00:08:34;100571.29;;;9.58;57.54
28701;BME280;15877;52.344;16.790;2023-03-19T00:11:11;100573.81;;;9.57;57.52
28701;BME280;15877;52.344;16.790;2023-03-19T00:13:45;100575.86;;;9.56;57.63
28701;BME280;15877;52.344;16.790;2023-03-19T00:16:18;100580.08;;;9.54;57.67
28701;BME280;15877;52.344;16.790;2023-03-19T00:18:51;100578.21;;;9.53;57.57
28701;BME280;15877;52.344;16.790;2023-03-19T00:21:23;100585.73;;;9.50;57.32
28701;BME280;15877;52.344;16.790;2023-03-19T00:23:57;100587.13;;;9.46;57.37
28701;BME280;15877;52.344;16.790;2023-03-19T00:26:33;100586.42;;;9.44;57.92
28701;BME280;15877;52.344;16.790;2023-03-19T00:29:06;100587.70;;;9.41;58.24
28701;BME280;15877;52.344;16.790;2023-03-19T00:31:40;100589.92;;;9.41;58.32
28701;BME280;15877;52.344;16.790;2023-03-19T00:34:12;100589.06;;;9.42;58.25
28701;BME280;15877;52.344;16.790;2023-03-19T00:36:48;100590.61;;;9.40;58.07
28701;BME280;15877;52.344;16.790;2023-03-19T00:39:21;100589.13;;;9.38;58.46
28701;BME280;15877;52.344;16.790;2023-03-19T00:41:54;100586.26;;;9.35;58.42
28701;BME280;15877;52.344;16.790;2023-03-19T00:56:01;100585.02;;;9.44;59.16
28701;BME280;15877;52.344;16.790;2023-03-19T00:58:34;100584.98;;;9.40;59.45
28701;BME280;15877;52.344;16.790;2023-03-19T01:01:10;100582.38;;;9.40;59.36
28701;BME280;15877;52.344;16.790;2023-03-19T01:03:44;100580.61;;;9.40;59.57
28701;BME280;15877;52.344;16.790;2023-03-19T01:06:18;100585.59;;;9.39;59.50
28701;BME280;15877;52.344;16.790;2023-03-19T01:08:51;100579.65;;;9.37;59.49
28701;BME280;15877;52.344;16.790;2023-03-19T01:11:24;100578.80;;;9.35;59.71
28701;BME280;15877;52.344;16.790;2023-03-19T01:13:57;100579.77;;;9.35;59.80
28701;BME280;15877;52.344;16.790;2023-03-19T01:16:31;100580.83;;;9.36;59.69
28701;BME280;15877;52.344;16.790;2023-03-19T01:19:04;100579.45;;;9.35;59.94
28701;BME280;15877;52.344;16.790;2023-03-19T01:21:37;100575.91;;;9.33;60.25
28701;BME280;15877;52.344;16.790;2023-03-19T01:24:10;100574.00;;;9.36;60.12
28701;BME280;15877;52.344;16.790;2023-03-19T01:26:43;100567.64;;;9.40;60.18
28701;BME280;15877;52.344;16.790;2023-03-19T01:29:23;100557.59;;;9.41;60.22
28701;BME280;15877;52.344;16.790;2023-03-19T01:31:57;100545.79;;;9.36;60.30
28701;BME280;15877;52.344;16.790;2023-03-19T01:34:48;100561.67;;;9.45;60.20
28701;BME280;15877;52.344;16.790;2023-03-19T01:37:20;100562.95;;;9.45;60.17
28701;BME280;15877;52.344;16.790;2023-03-19T01:39:53;100558.36;;;9.46;60.04
28701;BME280;15877;52.344;16.790;2023-03-19T01:42:26;100552.02;;;9.45;60.05
28701;BME280;15877;52.344;16.790;2023-03-19T01:45:34;100551.27;;;9.47;59.87
28701;BME280;15877;52.344;16.790;2023-03-19T01:48:36;100549.66;;;9.46;59.63
28701;BME280;15877;52.344;16.790;2023-03-19T01:51:17;100550.89;;;9.45;59.77
28701;BME280;15877;52.344;16.790;2023-03-19T01:53:52;100553.21;;;9.44;59.93
28701;BME280;15877;52.344;16.790;2023-03-19T01:57:08;100556.32;;;9.44;59.72
28701;BME280;15877;52.344;16.790;2023-03-19T02:00:18;100554.71;;;9.42;59.76
28701;BME280;15877;52.344;16.790;2023-03-19T02:02:54;100555.84;;;9.41;59.53
28701;BME280;15877;52.344;16.790;2023-03-19T02:05:45;100541.00;;;9.28;59.70
28701;BME280;15877;52.344;16.790;2023-03-19T02:08:20;100556.84;;;9.33;59.69
28701;BME280;15877;52.344;16.790;2023-03-19T02:10:58;100560.46;;;9.31;60.03
28701;BME280;15877;52.344;16.790;2023-03-19T02:13:34;100541.23;;;9.17;60.14
28701;BME280;15877;52.344;16.790;2023-03-19T02:16:10;100566.89;;;9.23;60.23
28701;BME280;15877;52.344;16.790;2023-03-19T02:18:46;100554.15;;;9.13;60.31
28701;BME280;15877;52.344;16.790;2023-03-19T02:21:21;100566.19;;;9.20;60.07
28701;BME280;15877;52.344;16.790;2023-03-19T02:24:00;100564.39;;;9.19;60.14
28701;BME280;15877;52.344;16.790;2023-03-19T02:27:05;100566.66;;;9.18;60.17
28701;BME280;15877;52.344;16.790;2023-03-19T02:29:45;100570.38;;;9.17;60.29
28701;BME280;15877;52.344;16.790;2023-03-19T02:32:19;100569.82;;;9.17;60.54
28701;BME280;15877;52.344;16.790;2023-03-19T02:34:52;100568.35;;;9.18;60.54
28701;BME280;15877;52.344;16.790;2023-03-19T02:37:28;100571.52;;;9.19;60.58
28701;BME280;15877;52.344;16.790;2023-03-19T02:40:07;100565.59;;;9.19;60.52
28701;BME280;15877;52.344;16.790;2023-03-19T02:42:42;100570.99;;;9.20;60.36
28701;BME280;15877;52.344;16.790;2023-03-19T02:45:15;100573.20;;;9.22;60.19
28701;BME280;15877;52.344;16.790;2023-03-19T02:47:48;100576.42;;;9.24;60.01
28701;BME280;15877;52.344;16.790;2023-03-19T02:50:22;100576.84;;;9.27;59.95
28701;BME280;15877;52.344;16.790;2023-03-19T02:52:58;100587.75;;;9.27;59.93
28701;BME280;15877;52.344;16.790;2023-03-19T02:55:31;100589.21;;;9.25;59.86
28701;BME280;15877;52.344;16.790;2023-03-19T02:58:03;100595.21;;;9.22;59.88
28701;BME280;15877;52.344;16.790;2023-03-19T03:00:38;100596.99;;;9.15;60.16
28701;BME280;15877;52.344;16.790;2023-03-19T03:03:11;100597.50;;;9.11;60.50
28701;BME280;15877;52.344;16.790;2023-03-19T03:05:43;100604.10;;;9.12;60.48
28701;BME280;15877;52.344;16.790;2023-03-19T03:08:16;100602.34;;;9.11;60.56
28701;BME280;15877;52.344;16.790;2023-03-19T03:10:48;100595.86;;;9.12;60.59
28701;BME280;15877;52.344;16.790;2023-03-19T03:13:21;100591.69;;;9.13;60.55
28701;BME280;15877;52.344;16.790;2023-03-19T03:15:54;100594.23;;;9.10;60.64
28701;BME280;15877;52.344;16.790;2023-03-19T03:18:28;100599.79;;;9.13;60.69
28701;BME280;15877;52.344;16.790;2023-03-19T03:21:02;100599.23;;;9.13;60.45
28701;BME280;15877;52.344;16.790;2023-03-19T03:23:35;100587.63;;;9.02;60.62
28701;BME280;15877;52.344;16.790;2023-03-19T03:26:09;100606.65;;;9.02;60.60
28701;BME280;15877;52.344;16.790;2023-03-19T03:28:41;100611.09;;;8.97;60.91
28701;BME280;15877;52.344;16.790;2023-03-19T03:31:14;100595.47;;;8.81;61.23
28701;BME280;15877;52.344;16.790;2023-03-19T03:33:48;100609.81;;;8.89;61.48
28701;BME280;15877;52.344;16.790;2023-03-19T03:36:26;100606.70;;;8.91;61.69
28701;BME280;15877;52.344;16.790;2023-03-19T03:38:59;100611.16;;;8.92;61.66
28701;BME280;15877;52.344;16.790;2023-03-19T03:41:32;100606.56;;;8.95;61.59
28701;BME280;15877;52.344;16.790;2023-03-19T03:44:06;100614.16;;;8.97;61.37
28701;BME280;15877;52.344;16.790;2023-03-19T03:46:41;100614.53;;;8.98;61.39
28701;BME280;15877;52.344;16.790;2023-03-19T03:49:14;100611.48;;;9.00;61.19
28701;BME280;15877;52.344;16.790;2023-03-19T03:51:47;100607.41;;;9.01;61.00
28701;BME280;15877;52.344;16.790;2023-03-19T03:54:19;100609.72;;;9.07;60.82
28701;BME280;15877;52.344;16.790;2023-03-19T03:56:53;100605.36;;;9.09;60.64
28701;BME280;15877;52.344;16.790;2023-03-19T03:59:26;100602.64;;;9.11;60.40
28701;BME280;15877;52.344;16.790;2023-03-19T04:01:59;100601.13;;;9.11;60.59
28701;BME280;15877;52.344;16.790;2023-03-19T04:04:32;100599.14;;;9.11;60.52
28701;BME280;15877;52.344;16.790;2023-03-19T04:07:06;100597.61;;;9.10;60.47
28701;BME280;15877;52.344;16.790;2023-03-19T04:09:45;100595.61;;;9.12;60.16
28701;BME280;15877;52.344;16.790;2023-03-19T04:12:20;100592.03;;;9.11;59.90
28701;BME280;15877;52.344;16.790;2023-03-19T04:14:53;100598.23;;;9.09;59.90
28701;BME280;15877;52.344;16.790;2023-03-19T04:17:28;100603.95;;;9.07;60.14
28701;BME280;15877;52.344;16.790;2023-03-19T04:20:01;100610.10;;;9.06;60.16
28701;BME280;15877;52.344;16.790;2023-03-19T04:22:35;100595.09;;;8.95;60.14
28701;BME280;15877;52.344;16.790;2023-03-19T04:25:11;100602.70;;;9.00;60.16
28701;BME280;15877;52.344;16.790;2023-03-19T04:27:44;100593.45;;;8.98;60.08
28701;BME280;15877;52.344;16.790;2023-03-19T04:30:17;100594.38;;;8.95;60.29
28701;BME280;15877;52.344;16.790;2023-03-19T04:32:51;100602.64;;;8.91;60.32
28701;BME280;15877;52.344;16.790;2023-03-19T04:35:25;100604.69;;;8.88;60.53
28701;BME280;15877;52.344;16.790;2023-03-19T04:37:58;100603.37;;;8.84;60.23
28701;BME280;15877;52.344;16.790;2023-03-19T04:40:31;100601.52;;;8.80;60.48
28701;BME280;15877;52.344;16.790;2023-03-19T04:43:04;100608.58;;;8.81;60.45
28701;BME280;15877;52.344;16.790;2023-03-19T04:45:38;100605.33;;;8.81;60.42
28701;BME280;15877;52.344;16.790;2023-03-19T04:48:13;100608.79;;;8.79;60.38
28701;BME280;15877;52.344;16.790;2023-03-19T04:50:47;100610.28;;;8.77;60.53
28701;BME280;15877;52.344;16.790;2023-03-19T04:53:23;100614.42;;;8.75;60.80
28701;BME280;15877;52.344;16.790;2023-03-19T04:55:57;100614.25;;;8.75;60.77
28701;BME280;15877;52.344;16.790;2023-03-19T04:58:30;100612.69;;;8.73;60.78
28701;BME280;15877;52.344;16.790;2023-03-19T05:01:04;100592.05;;;8.62;61.12
28701;BME280;15877;52.344;16.790;2023-03-19T05:03:59;100600.80;;;8.70;61.10
28701;BME280;15877;52.344;16.790;2023-03-19T05:06:35;100598.77;;;8.71;60.79
28701;BME280;15877;52.344;16.790;2023-03-19T05:09:09;100598.89;;;8.67;60.85
28701;BME280;15877;52.344;16.790;2023-03-19T05:11:42;100601.20;;;8.65;61.06
28701;BME280;15877;52.344;16.790;2023-03-19T05:14:20;100596.48;;;8.61;61.03
28701;BME280;15877;52.344;16.790;2023-03-19T05:17:13;100596.14;;;8.63;60.87
28701;BME280;15877;52.344;16.790;2023-03-19T05:20:10;100598.33;;;8.60;61.04
28701;BME280;15877;52.344;16.790;2023-03-19T05:22:49;100599.27;;;8.57;61.34
28701;BME280;15877;52.344;16.790;2023-03-19T05:25:25;100603.36;;;8.54;61.33
28701;BME280;15877;52.344;16.790;2023-03-19T05:27:59;100599.02;;;8.49;61.48
28701;BME280;15877;52.344;16.790;2023-03-19T05:30:33;100600.15;;;8.45;61.87
28701;BME280;15877;52.344;16.790;2023-03-19T05:33:12;100600.56;;;8.44;62.03
28701;BME280;15877;52.344;16.790;2023-03-19T05:35:48;100606.91;;;8.44;62.36
28701;BME280;15877;52.344;16.790;2023-03-19T05:38:30;100601.49;;;8.43;62.42
28701;BME280;15877;52.344;16.790;2023-03-19T05:41:08;100608.44;;;8.42;62.52
28701;BME280;15877;52.344;16.790;2023-03-19T05:43:58;100614.73;;;8.41;62.70
28701;BME280;15877;52.344;16.790;2023-03-19T05:46:50;100621.27;;;8.45;62.78
28701;BME280;15877;52.344;16.790;2023-03-19T05:49:23;100624.59;;;8.48;63.04
28701;BME280;15877;52.344;16.790;2023-03-19T05:51:57;100621.91;;;8.48;62.97
28701;BME280;15877;52.344;16.790;2023-03-19T05:54:30;100623.60;;;8.49;62.97
28701;BME280;15877;52.344;16.790;2023-03-19T05:57:41;100625.05;;;8.52;63.08
28701;BME280;15877;52.344;16.790;2023-03-19T06:00:27;100625.25;;;8.58;62.62
28701;BME280;15877;52.344;16.790;2023-03-19T06:03:00;100627.34;;;8.61;62.65
28701;BME280;15877;52.344;16.790;2023-03-19T06:05:53;100634.15;;;8.64;63.32
28701;BME280;15877;52.344;16.790;2023-03-19T06:08:43;100636.95;;;8.70;63.13
28701;BME280;15877;52.344;16.790;2023-03-19T06:11:26;100645.52;;;8.75;63.26
28701;BME280;15877;52.344;16.790;2023-03-19T06:14:19;100654.30;;;8.78;63.53
28701;BME280;15877;52.344;16.790;2023-03-19T06:17:04;100650.20;;;8.80;63.41
28701;BME280;15877;52.344;16.790;2023-03-19T06:19:40;100645.71;;;8.84;63.47
28701;BME280;15877;52.344;16.790;2023-03-19T06:22:14;100647.61;;;8.88;63.80
28701;BME280;15877;52.344;16.790;2023-03-19T06:24:47;100646.04;;;8.89;63.74
28701;BME280;15877;52.344;16.790;2023-03-19T06:27:21;100651.08;;;8.95;63.40
28701;BME280;15877;52.344;16.790;2023-03-19T06:29:56;100657.16;;;9.00;63.54
28701;BME280;15877;52.344;16.790;2023-03-19T06:32:34;100658.23;;;9.04;63.22
28701;BME280;15877;52.344;16.790;2023-03-19T06:35:11;100658.79;;;9.08;63.34
28701;BME280;15877;52.344;16.790;2023-03-19T06:37:44;100659.58;;;9.14;63.53
28701;BME280;15877;52.344;16.790;2023-03-19T06:40:17;100657.46;;;9.17;63.39
28701;BME280;15877;52.344;16.790;2023-03-19T06:42:50;100656.45;;;9.23;62.72
28701;BME280;15877;52.344;16.790;2023-03-19T06:45:24;100657.83;;;9.31;62.57
28701;BME280;15877;52.344;16.790;2023-03-19T06:47:57;100659.55;;;9.39;62.55
28701;BME280;15877;52.344;16.790;2023-03-19T06:50:29;100660.23;;;9.43;62.73
28701;BME280;15877;52.344;16.790;2023-03-19T06:53:03;100660.81;;;9.54;62.21
28701;BME280;15877;52.344;16.790;2023-03-19T06:55:37;100666.05;;;9.65;62.58
28701;BME280;15877;52.344;16.790;2023-03-19T06:58:11;100671.12;;;9.70;62.97
28701;BME280;15877;52.344;16.790;2023-03-19T07:00:44;100670.28;;;9.74;62.49
28701;BME280;15877;52.344;16.790;2023-03-19T07:03:17;100673.08;;;9.80;62.28
28701;BME280;15877;52.344;16.790;2023-03-19T07:05:50;100675.74;;;9.84;61.77
28701;BME280;15877;52.344;16.790;2023-03-19T07:08:24;100676.86;;;9.91;61.50
28701;BME280;15877;52.344;16.790;2023-03-19T07:11:06;100675.71;;;9.98;61.43
28701;BME280;15877;52.344;16.790;2023-03-19T07:13:40;100680.31;;;10.03;61.14
28701;BME280;15877;52.344;16.790;2023-03-19T07:16:14;100676.86;;;10.10;61.44
28701;BME280;15877;52.344;16.790;2023-03-19T07:18:47;100679.20;;;10.16;61.58
28701;BME280;15877;52.344;16.790;2023-03-19T07:21:20;100682.89;;;10.23;61.71
28701;BME280;15877;52.344;16.790;2023-03-19T07:23:55;100683.56;;;10.31;61.82
28701;BME280;15877;52.344;16.790;2023-03-19T07:26:30;100680.72;;;10.34;62.11
28701;BME280;15877;52.344;16.790;2023-03-19T07:29:04;100686.91;;;10.41;61.13
28701;BME280;15877;52.344;16.790;2023-03-19T07:31:39;100685.77;;;10.45;60.95
28701;BME280;15877;52.344;16.790;2023-03-19T07:34:12;100681.41;;;10.48;61.23
28701;BME280;15877;52.344;16.790;2023-03-19T07:36:46;100678.86;;;10.48;60.59
28701;BME280;15877;52.344;16.790;2023-03-19T07:39:21;100679.48;;;10.56;60.18
28701;BME280;15877;52.344;16.790;2023-03-19T07:41:54;100677.41;;;10.56;60.28
28701;BME280;15877;52.344;16.790;2023-03-19T07:44:28;100676.88;;;10.60;59.96
28701;BME280;15877;52.344;16.790;2023-03-19T07:47:02;100684.15;;;10.68;60.19
28701;BME280;15877;52.344;16.790;2023-03-19T07:49:35;100682.75;;;10.75;59.99
28701;BME280;15877;52.344;16.790;2023-03-19T07:52:08;100681.33;;;10.79;60.31
28701;BME280;15877;52.344;16.790;2023-03-19T07:54:41;100673.58;;;10.86;60.21
28701;BME280;15877;52.344;16.790;2023-03-19T07:57:15;100674.64;;;10.94;59.65
28701;BME280;15877;52.344;16.790;2023-03-19T07:59:49;100669.75;;;11.02;59.24
28701;BME280;15877;52.344;16.790;2023-03-19T08:02:24;100660.13;;;11.08;58.29
28701;BME280;15877;52.344;16.790;2023-03-19T08:04:58;100660.01;;;11.17;58.05
28701;BME280;15877;52.344;16.790;2023-03-19T08:07:36;100656.03;;;11.24;58.37
28701;BME280;15877;52.344;16.790;2023-03-19T08:10:12;100659.67;;;11.33;57.58
28701;BME280;15877;52.344;16.790;2023-03-19T08:12:45;100645.41;;;11.32;56.99
28701;BME280;15877;52.344;16.790;2023-03-19T08:15:20;100662.07;;;11.48;57.19
28701;BME280;15877;52.344;16.790;2023-03-19T08:18:00;100661.16;;;11.54;57.75
28701;BME280;15877;52.344;16.790;2023-03-19T08:20:34;100648.61;;;11.54;57.81
28701;BME280;15877;52.344;16.790;2023-03-19T08:23:09;100663.63;;;11.68;60.09
28701;BME280;15877;52.344;16.790;2023-03-19T08:25:43;100659.30;;;11.77;61.41
28701;BME280;15877;52.344;16.790;2023-03-19T08:28:16;100665.08;;;11.83;61.27
28701;BME280;15877;52.344;16.790;2023-03-19T08:30:50;100661.45;;;11.85;62.05
28701;BME280;15877;52.344;16.790;2023-03-19T08:33:25;100657.02;;;11.90;61.82
28701;BME280;15877;52.344;16.790;2023-03-19T08:36:08;100662.33;;;11.97;60.47
28701;BME280;15877;52.344;16.790;2023-03-19T08:38:45;100664.48;;;11.98;61.14
28701;BME280;15877;52.344;16.790;2023-03-19T08:41:20;100668.84;;;12.04;61.12
28701;BME280;15877;52.344;16.790;2023-03-19T08:43:54;100670.94;;;12.10;59.76
28701;BME280;15877;52.344;16.790;2023-03-19T08:46:28;100671.21;;;12.11;59.80
28701;BME280;15877;52.344;16.790;2023-03-19T08:49:04;100673.39;;;12.17;58.91
28701;BME280;15877;52.344;16.790;2023-03-19T08:51:37;100676.66;;;12.26;58.77
28701;BME280;15877;52.344;16.790;2023-03-19T08:54:13;100675.27;;;12.28;58.41
28701;BME280;15877;52.344;16.790;2023-03-19T08:56:45;100674.27;;;12.31;58.23
28701;BME280;15877;52.344;16.790;2023-03-19T08:59:18;100682.91;;;12.38;57.89
28701;BME280;15877;52.344;16.790;2023-03-19T09:01:52;100679.51;;;12.42;57.92
28701;BME280;15877;52.344;16.790;2023-03-19T09:04:25;100684.08;;;12.49;57.70
28701;BME280;15877;52.344;16.790;2023-03-19T09:06:58;100687.50;;;12.57;57.77
28701;BME280;15877;52.344;16.790;2023-03-19T09:09:30;100681.15;;;12.68;57.34
28701;BME280;15877;52.344;16.790;2023-03-19T09:12:03;100678.42;;;12.75;55.91
28701;BME280;15877;52.344;16.790;2023-03-19T09:14:36;100676.53;;;12.86;55.31
28701;BME280;15877;52.344;16.790;2023-03-19T09:17:10;100680.84;;;12.96;55.01
28701;BME280;15877;52.344;16.790;2023-03-19T09:19:43;100671.48;;;13.12;54.80
28701;BME280;15877;52.344;16.790;2023-03-19T09:22:18;100679.64;;;13.24;55.11
28701;BME280;15877;52.344;16.790;2023-03-19T09:24:52;100679.23;;;13.34;55.15
28701;BME280;15877;52.344;16.790;2023-03-19T09:27:28;100680.45;;;13.40;54.95
28701;BME280;15877;52.344;16.790;2023-03-19T09:30:02;100679.86;;;13.49;54.43
28701;BME280;15877;52.344;16.790;2023-03-19T09:32:36;100679.79;;;13.56;54.20
28701;BME280;15877;52.344;16.790;2023-03-19T09:35:10;100678.40;;;13.60;54.47
28701;BME280;15877;52.344;16.790;2023-03-19T09:37:42;100681.05;;;13.67;54.56
28701;BME280;15877;52.344;16.790;2023-03-19T09:40:21;100681.40;;;13.76;54.68
28701;BME280;15877;52.344;16.790;2023-03-19T09:43:03;100675.55;;;13.85;53.99
28701;BME280;15877;52.344;16.790;2023-03-19T09:45:38;100672.73;;;13.90;53.42
28701;BME280;15877;52.344;16.790;2023-03-19T09:48:17;100675.95;;;13.92;54.39
28701;BME280;15877;52.344;16.790;2023-03-19T09:50:56;100671.05;;;13.90;52.51
28701;BME280;15877;52.344;16.790;2023-03-19T09:53:35;100665.67;;;13.93;52.82
28701;BME280;15877;52.344;16.790;2023-03-19T09:56:14;100670.24;;;13.95;52.37
28701;BME280;15877;52.344;16.790;2023-03-19T09:58:49;100674.77;;;13.92;52.00
28701;BME280;15877;52.344;16.790;2023-03-19T10:01:28;100673.98;;;13.94;51.94
28701;BME280;15877;52.344;16.790;2023-03-19T10:04:22;100672.59;;;14.04;52.19
28701;BME280;15877;52.344;16.790;2023-03-19T10:07:05;100662.58;;;14.01;53.11
28701;BME280;15877;52.344;16.790;2023-03-19T10:09:49;100670.30;;;14.13;52.40
28701;BME280;15877;52.344;16.790;2023-03-19T10:12:42;100662.72;;;14.13;52.44
28701;BME280;15877;52.344;16.790;2023-03-19T10:15:23;100666.65;;;14.27;52.35
28701;BME280;15877;52.344;16.790;2023-03-19T10:18:04;100668.10;;;14.28;52.85
28701;BME280;15877;52.344;16.790;2023-03-19T10:20:47;100667.45;;;14.27;53.00
28701;BME280;15877;52.344;16.790;2023-03-19T10:23:32;100669.34;;;14.26;53.75
28701;BME280;15877;52.344;16.790;2023-03-19T10:26:13;100680.17;;;14.24;53.99
28701;BME280;15877;52.344;16.790;2023-03-19T10:28:57;100680.09;;;14.24;53.86
28701;BME280;15877;52.344;16.790;2023-03-19T10:31:48;100685.45;;;14.19;54.82
28701;BME280;15877;52.344;16.790;2023-03-19T10:34:38;100684.73;;;14.12;53.98
28701;BME280;15877;52.344;16.790;2023-03-19T10:37:17;100685.70;;;14.13;53.92
28701;BME280;15877;52.344;16.790;2023-03-19T10:39:52;100684.43;;;14.14;54.39
28701;BME280;15877;52.344;16.790;2023-03-19T10:42:43;100675.61;;;14.11;53.94
28701;BME280;15877;52.344;16.790;2023-03-19T10:45:25;100677.67;;;14.23;54.07
28701;BME280;15877;52.344;16.790;2023-03-19T10:48:00;100674.61;;;14.26;54.88
28701;BME280;15877;52.344;16.790;2023-03-19T10:50:36;100671.03;;;14.34;54.65
28701;BME280;15877;52.344;16.790;2023-03-19T10:53:27;100669.86;;;14.36;54.59
28701;BME280;15877;52.344;16.790;2023-03-19T10:56:04;100663.33;;;14.38;55.43
28701;BME280;15877;52.344;16.790;2023-03-19T10:58:37;100660.90;;;14.43;55.83
28701;BME280;15877;52.344;16.790;2023-03-19T11:01:11;100659.41;;;14.45;56.17
28701;BME280;15877;52.344;16.790;2023-03-19T11:03:54;100654.11;;;14.50;56.01
28701;BME280;15877;52.344;16.790;2023-03-19T11:06:30;100654.17;;;14.49;56.34
28701;BME280;15877;52.344;16.790;2023-03-19T11:09:11;100651.16;;;14.50;56.47
28701;BME280;15877;52.344;16.790;2023-03-19T11:11:46;100649.71;;;14.49;57.28
28701;BME280;15877;52.344;16.790;2023-03-19T11:14:26;100652.32;;;14.55;55.78
28701;BME280;15877;52.344;16.790;2023-03-19T11:17:15;100650.67;;;14.58;55.66
28701;BME280;15877;52.344;16.790;2023-03-19T11:19:51;100649.31;;;14.58;56.08
28701;BME280;15877;52.344;16.790;2023-03-19T11:22:25;100647.46;;;14.57;55.69
28701;BME280;15877;52.344;16.790;2023-03-19T11:24:58;100648.41;;;14.57;55.36
28701;BME280;15877;52.344;16.790;2023-03-19T11:27:33;100649.47;;;14.57;55.57
28701;BME280;15877;52.344;16.790;2023-03-19T11:30:16;100654.89;;;14.57;56.13
28701;BME280;15877;52.344;16.790;2023-03-19T11:33:19;100643.21;;;14.54;55.85
28701;BME280;15877;52.344;16.790;2023-03-19T11:36:02;100629.86;;;14.47;55.70
28701;BME280;15877;52.344;16.790;2023-03-19T11:38:42;100637.48;;;14.57;55.60
28701;BME280;15877;52.344;16.790;2023-03-19T11:41:26;100637.52;;;14.62;56.08
28701;BME280;15877;52.344;16.790;2023-03-19T11:44:05;100632.86;;;14.69;55.86
28701;BME280;15877;52.344;16.790;2023-03-19T11:46:47;100634.59;;;14.75;55.82
28701;BME280;15877;52.344;16.790;2023-03-19T11:49:40;100629.80;;;14.85;55.18
28701;BME280;15877;52.344;16.790;2023-03-19T11:52:17;100630.01;;;14.91;54.87
28701;BME280;15877;52.344;16.790;2023-03-19T11:55:02;100638.20;;;14.95;54.85
28701;BME280;15877;52.344;16.790;2023-03-19T11:57:50;100649.98;;;15.01;54.12
28701;BME280;15877;52.344;16.790;2023-03-19T12:00:32;100649.46;;;15.07;53.69
28701;BME280;15877;52.344;16.790;2023-03-19T12:06:23;100650.08;;;15.14;53.80
28701;BME280;15877;52.344;16.790;2023-03-19T12:09:00;100647.30;;;15.16;53.93
28701;BME280;15877;52.344;16.790;2023-03-19T12:11:41;100647.08;;;15.21;53.14
28701;BME280;15877;52.344;16.790;2023-03-19T12:14:26;100648.98;;;15.19;52.77
28701;BME280;15877;52.344;16.790;2023-03-19T12:17:19;100648.91;;;15.17;52.66
28701;BME280;15877;52.344;16.790;2023-03-19T12:20:12;100636.20;;;15.19;52.96
28701;BME280;15877;52.344;16.790;2023-03-19T12:22:58;100646.90;;;15.30;53.24
28701;BME280;15877;52.344;16.790;2023-03-19T12:25:41;100643.39;;;15.31;54.18
28701;BME280;15877;52.344;16.790;2023-03-19T12:28:20;100640.94;;;15.32;54.20
28701;BME280;15877;52.344;16.790;2023-03-19T12:31:19;100639.64;;;15.32;54.27
28701;BME280;15877;52.344;16.790;2023-03-19T12:34:05;100636.54;;;15.35;54.16
28701;BME280;15877;52.344;16.790;2023-03-19T12:36:49;100636.06;;;15.37;53.98
28701;BME280;15877;52.344;16.790;2023-03-19T12:39:27;100635.27;;;15.35;54.02
28701;BME280;15877;52.344;16.790;2023-03-19T12:42:04;100637.08;;;15.32;54.07
28701;BME280;15877;52.344;16.790;2023-03-19T12:44:44;100638.54;;;15.34;53.75
28701;BME280;15877;52.344;16.790;2023-03-19T12:47:21;100634.70;;;15.35;53.96
28701;BME280;15877;52.344;16.790;2023-03-19T12:49:59;100625.78;;;15.27;53.89
28701;BME280;15877;52.344;16.790;2023-03-19T12:52:37;100638.72;;;15.38;53.64
28701;BME280;15877;52.344;16.790;2023-03-19T12:55:16;100634.30;;;15.37;53.71
28701;BME280;15877;52.344;16.790;2023-03-19T12:57:52;100628.45;;;15.35;53.65
28701;BME280;15877;52.344;16.790;2023-03-19T13:00:30;100627.83;;;15.35;53.47
28701;BME280;15877;52.344;16.790;2023-03-19T13:03:09;100611.89;;;15.29;53.15
28701;BME280;15877;52.344;16.790;2023-03-19T13:05:47;100624.57;;;15.39;53.15
28701;BME280;15877;52.344;16.790;2023-03-19T13:08:30;100618.77;;;15.41;53.77
28701;BME280;15877;52.344;16.790;2023-03-19T13:11:07;100620.70;;;15.42;53.20
28701;BME280;15877;52.344;16.790;2023-03-19T13:13:47;100613.98;;;15.43;52.73
28701;BME280;15877;52.344;16.790;2023-03-19T13:16:32;100603.27;;;15.45;52.58
28701;BME280;15877;52.344;16.790;2023-03-19T13:19:17;100603.04;;;15.46;52.63
28701;BME280;15877;52.344;16.790;2023-03-19T13:21:55;100603.05;;;15.50;53.13
28701;BME280;15877;52.344;16.790;2023-03-19T13:24:32;100603.06;;;15.52;53.72
28701;BME280;15877;52.344;16.790;2023-03-19T13:27:16;100602.60;;;15.57;53.71
28701;BME280;15877;52.344;16.790;2023-03-19T13:30:00;100598.20;;;15.58;53.73
28701;BME280;15877;52.344;16.790;2023-03-19T13:32:38;100593.27;;;15.60;54.39
28701;BME280;15877;52.344;16.790;2023-03-19T13:35:33;100597.42;;;15.60;54.30
28701;BME280;15877;52.344;16.790;2023-03-19T13:38:16;100589.91;;;15.62;53.04
28701;BME280;15877;52.344;16.790;2023-03-19T13:40:51;100587.35;;;15.63;53.52
28701;BME280;15877;52.344;16.790;2023-03-19T13:43:41;100593.13;;;15.65;53.73
28701;BME280;15877;52.344;16.790;2023-03-19T13:46:37;100580.29;;;15.59;53.99
28701;BME280;15877;52.344;16.790;2023-03-19T13:49:28;100591.12;;;15.67;54.71
28701;BME280;15877;52.344;16.790;2023-03-19T13:55:31;100589.05;;;15.69;51.17
28701;BME280;15877;52.344;16.790;2023-03-19T13:58:16;100590.09;;;15.69;51.12